Time;durP1;ratioP1;P1;durP2;ratioP2;P2;SDS_P1;SDS_P2;PMS_P1;PMS_P2;Temp;Humidity;BMP_temperature;BMP_pressure;BME280_temperature;BME280_humidity;BME280_pressure;Samples;Min_cycle;Max_cycle;Signal;HPM_P1;HPM_P2
2021/11/23 00:01:38;;;;;;;;;23.25;16.50;;;;;7.15;60.92;102574.53;5061111;28;49528;-78
2021/11/23 00:04:04;;;;;;;;;23.00;18.50;;;;;7.14;61.10;102576.25;5059549;28;45520;-79
2021/11/23 00:06:33;;;;;;;;;19.75;12.75;;;;;7.13;60.96;102577.06;5062133;28;46357;-79
2021/11/23 00:08:59;;;;;;;;;22.50;18.25;;;;;7.13;61.21;102577.06;5057864;28;45385;-79
2021/11/23 00:11:27;;;;;;;;;15.25;14.25;;;;;7.05;60.94;102549.50;5062558;28;45731;-79
2021/11/23 00:13:55;;;;;;;;;19.00;19.00;;;;;7.12;61.15;102561.22;5046268;28;45517;-79
2021/11/23 00:16:21;;;;;;;;;18.50;13.75;;;;;7.11;61.01;102567.31;5040009;28;46530;-79
2021/11/23 00:18:55;;;;;;;;;19.00;18.25;;;;;7.10;60.84;102569.03;5069181;28;62809;-79
2021/11/23 00:24:47;;;;;;;;;19.50;16.75;;;;;7.12;61.01;102564.75;5049466;28;45496;-79
2021/11/23 00:27:14;;;;;;;;;18.25;14.50;;;;;7.10;60.91;102566.41;5057236;28;50841;-79
2021/11/23 00:29:40;;;;;;;;;19.00;16.25;;;;;7.03;61.00;102553.75;5058854;28;45379;-78
2021/11/23 00:32:17;;;;;;;;;16.25;16.00;;;;;7.06;61.08;102560.06;5058063;28;56285;-79
2021/11/23 00:34:42;;;;;;;;;16.00;15.50;;;;;7.04;61.04;102558.19;5063267;28;45378;-79
2021/11/23 00:37:08;;;;;;;;;19.50;12.25;;;;;7.04;60.92;102559.09;5064849;28;65042;-79
2021/11/23 00:39:33;;;;;;;;;19.75;15.00;;;;;7.04;61.02;102560.84;5056482;28;61891;-79
2021/11/23 00:42:02;;;;;;;;;25.25;19.50;;;;;7.00;60.73;102558.84;5057854;28;45403;-79
2021/11/23 00:44:27;;;;;;;;;23.50;15.25;;;;;6.99;60.98;102562.31;5041741;28;55416;-79
2021/11/23 00:46:52;;;;;;;;;19.25;14.25;;;;;6.97;60.95;102562.19;5056729;28;47271;-79
2021/11/23 00:49:18;;;;;;;;;19.75;14.50;;;;;6.97;61.12;102569.19;5070502;28;61822;-78
2021/11/23 00:51:46;;;;;;;;;18.00;15.50;;;;;6.97;60.98;102563.94;5066732;28;45496;-80
2021/11/23 00:54:17;;;;;;;;;19.75;18.25;;;;;6.92;61.12;102563.69;5059157;28;47349;-80
2021/11/23 00:56:46;;;;;;;;;17.00;14.00;;;;;6.93;61.33;102562.00;5035501;28;47324;-80
2021/11/23 00:59:13;;;;;;;;;16.00;15.50;;;;;6.95;61.02;102568.22;5034564;28;45246;-80
2021/11/23 01:01:39;;;;;;;;;18.00;15.25;;;;;6.95;61.15;102573.47;5038578;28;45399;-80
2021/11/23 01:04:04;;;;;;;;;18.00;15.25;;;;;6.90;60.99;102567.97;5038594;28;55395;-80
2021/11/23 01:06:30;;;;;;;;;17.50;17.25;;;;;6.91;60.96;102574.13;5045898;28;46534;-80
2021/11/23 01:08:55;;;;;;;;;19.75;14.75;;;;;6.88;61.13;102568.72;5043358;28;45312;-80
2021/11/23 01:11:20;;;;;;;;;21.75;18.25;;;;;6.83;61.34;102560.59;5035921;28;57406;-80
2021/11/23 01:13:46;;;;;;;;;20.50;18.00;;;;;6.81;61.02;102573.59;5037088;28;45444;-80
2021/11/23 01:16:12;;;;;;;;;22.75;18.00;;;;;6.80;61.18;102574.44;5044315;28;45890;-80
2021/11/23 01:18:37;;;;;;;;;18.50;15.25;;;;;6.79;61.37;102575.25;5035999;28;46555;-80
2021/11/23 01:21:04;;;;;;;;;20.75;18.00;;;;;6.79;61.25;102569.09;5050197;28;45385;-80
2021/11/23 01:23:30;;;;;;;;;17.00;17.00;;;;;6.78;61.22;102565.59;5046843;28;45509;-80
2021/11/23 01:25:58;;;;;;;;;16.00;13.25;;;;;6.77;61.24;102562.88;5049286;28;46204;-80
2021/11/23 01:28:26;;;;;;;;;17.25;14.25;;;;;6.76;61.32;102569.81;5036329;28;61488;-80
2021/11/23 01:30:52;;;;;;;;;19.50;15.00;;;;;6.76;61.27;102572.44;5040963;28;45495;-80
2021/11/23 01:33:18;;;;;;;;;17.50;14.75;;;;;6.76;61.58;102571.56;5053677;28;57894;-80
2021/11/23 01:35:43;;;;;;;;;17.25;14.50;;;;;6.75;61.48;102567.13;5045595;28;46714;-80
2021/11/23 01:38:09;;;;;;;;;20.00;18.00;;;;;6.73;61.12;102564.44;5042933;28;61612;-81
2021/11/23 01:40:34;;;;;;;;;21.75;15.25;;;;;6.69;61.33;102565.06;5047558;28;45295;-80
2021/11/23 01:43:05;;;;;;;;;19.75;15.25;;;;;6.67;61.28;102574.59;5046388;28;60578;-80
2021/11/23 01:45:31;;;;;;;;;21.00;15.25;;;;;6.69;61.31;102580.81;5042505;28;47805;-80
2021/11/23 01:47:59;;;;;;;;;18.75;14.75;;;;;6.66;61.43;102572.81;5036294;28;45786;-80
2021/11/23 01:50:27;;;;;;;;;22.50;17.50;;;;;6.66;61.43;102570.19;5033803;28;46262;-80
2021/11/23 01:52:57;;;;;;;;;23.25;17.25;;;;;6.62;61.40;102575.16;5041132;28;45345;-80
2021/11/23 01:55:23;;;;;;;;;25.25;18.00;;;;;6.62;61.58;102565.56;5033028;28;47547;-80
2021/11/23 01:57:48;;;;;;;;;19.75;17.25;;;;;6.61;61.43;102571.66;5070399;28;45503;-80
2021/11/23 02:00:14;;;;;;;;;20.50;18.50;;;;;6.64;61.47;102578.78;5038741;28;45314;-80
2021/11/23 02:02:40;;;;;;;;;22.50;18.75;;;;;6.63;61.57;102583.13;5058488;28;45633;-80
2021/11/23 02:05:05;;;;;;;;;21.25;18.00;;;;;6.63;61.59;102584.84;5061793;28;47396;-80
2021/11/23 02:07:31;;;;;;;;;20.25;14.25;;;;;6.61;61.65;102587.38;5055903;28;45503;-80
2021/11/23 02:09:56;;;;;;;;;20.00;17.00;;;;;6.59;61.43;102574.97;5058235;28;46075;-80
2021/11/23 02:12:22;;;;;;;;;17.50;17.00;;;;;6.59;61.59;102580.22;5039807;28;59008;-80
2021/11/23 02:14:47;;;;;;;;;23.00;17.00;;;;;6.57;61.69;102578.44;5042769;28;68460;-80
2021/11/23 02:17:13;;;;;;;;;19.50;17.25;;;;;6.55;61.67;102587.03;5057850;28;45560;-80
2021/11/23 02:19:38;;;;;;;;;21.25;16.75;;;;;6.52;61.82;102572.03;5058643;28;62320;-80
2021/11/23 02:22:04;;;;;;;;;20.75;16.00;;;;;6.51;61.65;102574.56;5056299;28;45578;-80
2021/11/23 02:24:29;;;;;;;;;17.50;15.50;;;;;6.48;61.52;102572.66;5059389;28;63936;-80
2021/11/23 02:26:54;;;;;;;;;21.00;16.25;;;;;6.47;61.60;102568.25;5056386;28;65812;-80
2021/11/23 02:29:20;;;;;;;;;23.00;14.00;;;;;6.47;61.51;102563.00;5060061;28;45517;-80
2021/11/23 02:31:46;;;;;;;;;16.00;16.00;;;;;6.48;61.50;102571.78;5063685;28;45281;-80
2021/11/23 02:34:11;;;;;;;;;19.75;15.25;;;;;6.49;61.41;102571.84;5037419;28;47389;-81
2021/11/23 02:36:38;;;;;;;;;23.25;18.25;;;;;6.51;61.66;102574.56;5054827;28;60639;-80
2021/11/23 02:39:04;;;;;;;;;19.00;16.50;;;;;6.48;61.32;102561.28;5063478;28;45286;-80
2021/11/23 02:41:30;;;;;;;;;18.00;14.75;;;;;6.50;61.30;102572.78;5037953;28;46624;-80
2021/11/23 02:43:55;;;;;;;;;18.00;16.50;;;;;6.49;61.55;102563.97;5058095;28;63109;-80
2021/11/23 02:46:20;;;;;;;;;22.00;15.75;;;;;6.48;61.37;102566.53;5045803;28;59036;-80
2021/11/23 02:48:46;;;;;;;;;17.00;14.25;;;;;6.51;61.52;102569.31;5055528;28;49548;-81
2021/11/23 02:51:17;;;;;;;;;25.00;20.50;;;;;6.50;61.39;102568.44;5055813;28;45535;-80
2021/11/23 02:53:48;;;;;;;;;20.75;16.25;;;;;6.47;61.16;102555.13;5054844;28;47321;-81
2021/11/23 02:56:13;;;;;;;;;15.50;15.25;;;;;6.50;60.96;102567.53;5051967;28;45317;-81
2021/11/23 02:58:40;;;;;;;;;25.25;15.50;;;;;6.50;61.30;102567.53;5030064;28;55651;-81
2021/11/23 03:01:07;;;;;;;;;17.00;15.25;;;;;6.49;61.18;102563.06;5054637;28;45478;-80
2021/11/23 03:03:32;;;;;;;;;16.25;14.25;;;;;6.51;61.08;102567.59;5049423;28;46905;-81
2021/11/23 03:05:57;;;;;;;;;19.00;18.50;;;;;6.51;61.23;102577.19;5055429;28;45374;-81
2021/11/23 03:08:23;;;;;;;;;22.00;17.75;;;;;6.45;61.21;102558.50;5054817;28;45365;-80
2021/11/23 03:10:48;;;;;;;;;20.75;14.50;;;;;6.44;61.25;102559.28;5053330;28;45286;-81
2021/11/23 03:13:14;;;;;;;;;17.00;14.00;;;;;6.48;61.24;102564.78;5054602;28;47709;-81
2021/11/23 03:15:39;;;;;;;;;22.25;16.00;;;;;6.43;61.05;102549.63;5049125;28;61802;-81
2021/11/23 03:18:09;;;;;;;;;21.00;15.25;;;;;6.34;61.04;102542.16;5029994;28;57093;-81
2021/11/23 03:20:36;;;;;;;;;17.50;17.00;;;;;6.46;61.22;102561.19;5032039;28;45586;-81
2021/11/23 03:23:01;;;;;;;;;25.75;20.00;;;;;6.39;61.23;102539.75;5043018;28;47573;-81
2021/11/23 03:25:27;;;;;;;;;21.75;15.25;;;;;6.43;60.93;102550.50;5046210;28;63060;-81
2021/11/23 03:27:52;;;;;;;;;18.00;15.25;;;;;6.40;61.14;102541.59;5042351;28;59673;-80
2021/11/23 03:30:22;;;;;;;;;22.25;17.50;;;;;6.38;61.19;102533.63;5050589;28;45640;-80
2021/11/23 03:32:48;;;;;;;;;22.75;14.75;;;;;6.40;61.14;102538.97;5051107;28;47551;-80
2021/11/23 03:35:14;;;;;;;;;21.75;20.25;;;;;6.33;60.97;102528.94;5054658;28;45548;-80
2021/11/23 03:37:40;;;;;;;;;18.25;17.50;;;;;6.38;61.04;102538.88;5047451;28;45517;-81
2021/11/23 03:40:06;;;;;;;;;19.25;17.50;;;;;6.34;60.91;102542.16;5053047;28;45379;-81
2021/11/23 03:42:32;;;;;;;;;24.25;18.25;;;;;6.37;60.65;102534.44;5036294;28;46447;-80
2021/11/23 03:45:00;;;;;;;;;23.00;17.75;;;;;6.37;60.90;102534.44;5036611;28;45706;-81
2021/11/23 03:47:28;;;;;;;;;17.00;15.25;;;;;6.37;60.57;102534.44;5050270;28;45406;-81
2021/11/23 03:49:53;;;;;;;;;18.50;17.75;;;;;6.37;60.79;102533.53;5039251;28;45609;-81
2021/11/23 03:52:18;;;;;;;;;20.50;16.00;;;;;6.28;60.69;102527.00;5043046;28;64796;-81
2021/11/23 03:54:45;;;;;;;;;19.50;15.50;;;;;6.34;60.75;102535.97;5028015;28;61477;-81
2021/11/23 03:57:10;;;;;;;;;21.25;18.75;;;;;6.32;60.68;102537.63;5040289;28;45558;-81
2021/11/23 03:59:36;;;;;;;;;22.00;17.25;;;;;6.29;61.03;102543.63;5071703;28;55657;-80
2021/11/23 04:02:02;;;;;;;;;25.00;17.25;;;;;6.29;60.54;102527.88;5071327;28;46463;-81
2021/11/23 04:04:27;;;;;;;;;17.25;14.75;;;;;6.28;60.73;102540.09;5068225;28;45354;-81
2021/11/23 04:06:52;;;;;;;;;22.00;17.00;;;;;6.29;60.72;102531.41;5065320;28;45913;-81
2021/11/23 04:09:18;;;;;;;;;21.25;16.50;;;;;6.28;60.79;102531.28;5071912;28;45509;-81
2021/11/23 04:11:43;;;;;;;;;17.25;13.75;;;;;6.26;60.69;102523.34;5058633;28;46395;-82
2021/11/23 04:14:09;;;;;;;;;27.25;20.25;;;;;6.26;60.57;102532.94;5069621;28;60717;-81
2021/11/23 04:16:34;;;;;;;;;21.25;16.00;;;;;6.27;60.33;102540.00;5058239;28;46254;-81
2021/11/23 04:18:59;;;;;;;;;22.00;18.00;;;;;6.26;60.46;102543.44;5039865;28;51286;-81
2021/11/23 04:21:25;;;;;;;;;20.00;15.25;;;;;6.26;60.43;102540.81;5063359;28;61400;-82
2021/11/23 04:23:50;;;;;;;;;18.25;17.00;;;;;6.22;60.45;102531.88;5041851;28;60411;-82
2021/11/23 04:26:16;;;;;;;;;17.75;14.25;;;;;6.24;60.82;102539.84;5056923;28;58799;-81
2021/11/23 04:28:41;;;;;;;;;28.75;19.00;;;;;6.21;60.57;102535.31;5060691;28;45600;-81
2021/11/23 04:31:06;;;;;;;;;19.75;14.00;;;;;6.24;60.67;102535.50;5043170;28;52330;-81
2021/11/23 04:33:32;;;;;;;;;22.75;17.25;;;;;6.19;60.50;102534.34;5074339;28;54714;-81
2021/11/23 04:35:57;;;;;;;;;17.00;14.75;;;;;6.21;60.53;102534.41;5055656;28;45291;-81
2021/11/23 04:38:23;;;;;;;;;19.25;16.75;;;;;6.22;60.69;102531.88;5061806;28;59674;-81
2021/11/23 04:40:48;;;;;;;;;18.25;18.00;;;;;6.17;60.47;102529.81;5039654;28;46940;-81
2021/11/23 04:43:13;;;;;;;;;22.00;16.25;;;;;6.20;60.54;102530.00;5044316;28;59911;-81
2021/11/23 04:45:39;;;;;;;;;22.25;18.00;;;;;6.20;60.73;102535.22;5057048;28;58924;-81
2021/11/23 04:48:05;;;;;;;;;12.75;9.25;;;;;6.14;60.71;102533.16;5061059;28;45578;-81
2021/11/23 04:50:31;;;;;;;;;19.25;15.50;;;;;6.17;60.67;102538.56;5063561;28;47263;-81
2021/11/23 04:52:56;;;;;;;;;18.25;16.75;;;;;6.16;60.52;102541.13;5058957;28;45515;-81
2021/11/23 04:55:21;;;;;;;;;21.25;17.50;;;;;6.19;60.53;102546.53;5061674;28;45504;-81
2021/11/23 04:57:47;;;;;;;;;18.50;15.25;;;;;6.17;60.52;102538.56;5059247;28;47672;-81
2021/11/23 05:00:14;;;;;;;;;20.75;17.00;;;;;6.18;60.44;102555.19;5066821;28;56208;-81
2021/11/23 05:02:40;;;;;;;;;23.25;16.50;;;;;6.16;60.78;102546.34;5058536;28;45287;-81
2021/11/23 05:05:05;;;;;;;;;18.75;15.25;;;;;6.14;60.77;102548.91;5064281;28;45298;-81
2021/11/23 05:07:31;;;;;;;;;18.75;17.50;;;;;6.14;60.51;102546.28;5058027;28;45219;-80
2021/11/23 05:09:56;;;;;;;;;16.75;16.00;;;;;6.11;60.55;102539.94;5065200;28;46482;-80
2021/11/23 05:12:22;;;;;;;;;24.00;17.50;;;;;6.14;60.56;102556.78;5069601;28;55458;-81
2021/11/23 05:14:47;;;;;;;;;23.25;17.25;;;;;6.14;60.33;102551.53;5071838;28;45523;-81
2021/11/23 05:17:12;;;;;;;;;21.50;16.00;;;;;6.11;60.49;102548.72;5174283;22;45502;-81
2021/11/23 05:19:38;;;;;;;;;14.50;13.75;;;;;6.12;60.41;102549.63;5062494;28;57660;-81
2021/11/23 05:22:05;;;;;;;;;17.00;13.00;;;;;6.11;61.03;102563.56;5062561;28;45398;-81
2021/11/23 05:24:30;;;;;;;;;13.00;10.25;;;;;6.08;60.39;102553.81;5069325;28;45373;-81
2021/11/23 05:26:56;;;;;;;;;24.75;16.00;;;;;6.10;60.70;102553.88;5056072;28;53091;-80
2021/11/23 05:29:21;;;;;;;;;16.75;13.00;;;;;6.04;60.73;102551.81;5052094;28;63214;-80
2021/11/23 05:31:46;;;;;;;;;21.75;17.00;;;;;6.07;60.57;102557.22;5058933;28;61263;-80
2021/11/23 05:34:12;;;;;;;;;17.50;14.75;;;;;6.08;60.61;102564.31;5057035;28;45513;-78
2021/11/23 05:36:37;;;;;;;;;20.00;12.50;;;;;6.07;60.47;102558.94;5039988;28;63181;-78
2021/11/23 05:39:04;;;;;;;;;21.25;18.25;;;;;6.07;60.39;102566.81;5038591;28;45540;-76
2021/11/23 05:41:29;;;;;;;;;26.00;18.75;;;;;6.06;60.37;102565.00;5057248;28;45470;-76
2021/11/23 05:43:55;;;;;;;;;23.50;16.75;;;;;6.05;60.58;102558.88;5060794;28;45151;-80
2021/11/23 05:46:20;;;;;;;;;17.50;14.00;;;;;6.01;60.61;102572.59;5057193;28;45406;-79
2021/11/23 05:48:46;;;;;;;;;17.75;14.50;;;;;6.05;60.46;102582.47;5063132;28;47614;-78
2021/11/23 05:51:11;;;;;;;;;24.00;19.00;;;;;6.05;60.65;102577.22;5055080;28;65125;-77
2021/11/23 05:53:39;;;;;;;;;17.50;13.75;;;;;6.02;60.32;102577.06;5055704;28;45540;-76
2021/11/23 05:56:04;;;;;;;;;19.75;17.25;;;;;6.00;60.73;102582.19;5056931;28;45295;-79
2021/11/23 05:58:30;;;;;;;;;18.75;15.50;;;;;5.99;60.64;102584.75;5055919;28;45963;-76
2021/11/23 06:00:55;;;;;;;;;15.25;13.50;;;;;5.96;60.51;102582.81;5055638;28;59327;-82
2021/11/23 06:03:21;;;;;;;;;21.75;17.75;;;;;5.93;60.25;102579.16;5037975;28;53017;-79
2021/11/23 06:05:46;;;;;;;;;26.25;17.00;;;;;5.93;60.53;102581.78;5057609;28;54912;-79
2021/11/23 06:08:11;;;;;;;;;18.00;15.75;;;;;5.91;60.44;102585.97;5058455;28;47375;-79
2021/11/23 06:10:37;;;;;;;;;16.75;13.50;;;;;5.88;60.71;102585.81;5056745;28;45422;-83
2021/11/23 06:13:02;;;;;;;;;23.00;16.50;;;;;5.84;60.56;102579.47;5021285;28;60425;-79
2021/11/23 06:15:28;;;;;;;;;21.75;15.75;;;;;5.83;60.95;102579.38;5048372;28;56671;-78
2021/11/23 06:18:00;;;;;;;;;20.00;16.00;;;;;5.82;60.66;102573.25;5053106;28;47406;-79
2021/11/23 06:20:26;;;;;;;;;17.75;17.25;;;;;5.84;60.46;102574.22;5036359;28;45571;-78
2021/11/23 06:22:53;;;;;;;;;16.75;15.25;;;;;5.78;59.88;102585.25;5052022;28;57340;-81
2021/11/23 06:25:18;;;;;;;;;18.75;13.50;;;;;5.59;60.44;102573.59;5036624;28;45579;-83
2021/11/23 06:27:44;;;;;;;;;17.25;13.25;;;;;5.35;60.69;102581.81;5050038;28;46068;-81
2021/11/23 06:30:09;;;;;;;;;21.00;16.00;;;;;5.22;61.05;102585.41;5034588;28;58325;-77
2021/11/23 06:32:35;;;;;;;;;14.25;14.25;;;;;5.20;61.05;102589.63;5050412;28;45587;-78
2021/11/23 06:35:00;;;;;;;;;19.75;13.25;;;;;5.17;61.17;102572.88;5052571;28;45540;-78
2021/11/23 06:37:26;;;;;;;;;15.75;13.00;;;;;5.24;61.15;102593.38;5052918;28;46708;-78
2021/11/23 06:39:51;;;;;;;;;16.25;12.00;;;;;5.28;61.16;102594.47;5054816;28;45393;-78
2021/11/23 06:42:16;;;;;;;;;25.50;14.25;;;;;5.31;61.40;102592.00;5054252;28;45333;-78
2021/11/23 06:44:42;;;;;;;;;20.00;16.75;;;;;5.35;60.96;102596.63;5034816;28;46344;-78
2021/11/23 06:47:08;;;;;;;;;15.00;13.50;;;;;5.24;60.97;102585.50;5051874;28;48056;-78
2021/11/23 06:49:33;;;;;;;;;14.75;12.00;;;;;5.40;61.00;102611.81;5050595;28;45643;-77
2021/11/23 06:51:58;;;;;;;;;16.25;15.25;;;;;5.42;60.79;102614.50;5053712;28;57538;-78
2021/11/23 06:54:25;;;;;;;;;15.00;14.50;;;;;5.43;61.17;102617.25;5055576;28;62542;-77
2021/11/23 06:56:54;;;;;;;;;14.25;14.25;;;;;5.45;61.03;102620.84;5054691;28;46372;-76
2021/11/23 06:59:21;;;;;;;;;13.75;13.00;;;;;5.47;61.04;102623.56;5054852;28;45631;-76
2021/11/23 07:01:46;;;;;;;;;17.00;13.25;;;;;5.51;61.03;102628.19;5036113;28;45307;-77
2021/11/23 07:04:12;;;;;;;;;15.75;14.25;;;;;5.51;61.00;102623.84;5055320;28;45416;-77
2021/11/23 07:06:37;;;;;;;;;17.25;15.75;;;;;5.48;61.18;102610.53;5055031;28;45565;-77
2021/11/23 07:15:47;;;;;;;;;12.75;10.75;;;;;5.60;60.85;102626.13;5081876;22;45469;-77
2021/11/23 07:18:13;;;;;;;;;17.25;12.25;;;;;5.62;60.79;102634.97;5062251;28;45447;-76
2021/11/23 07:20:38;;;;;;;;;18.75;12.25;;;;;5.63;60.63;102626.28;5045632;28;46337;-77
2021/11/23 07:23:04;;;;;;;;;19.00;13.00;;;;;5.61;60.36;102622.69;5059382;28;45533;-78
2021/11/23 07:25:29;;;;;;;;;16.75;13.00;;;;;5.69;60.49;102630.97;5023647;28;45544;-77
2021/11/23 07:27:55;;;;;;;;;15.00;13.75;;;;;5.70;60.62;102633.72;5053289;28;46389;-82
2021/11/23 07:30:20;;;;;;;;;14.00;13.50;;;;;5.72;60.33;102636.41;5056532;28;45498;-82
2021/11/23 07:32:46;;;;;;;;;15.75;13.00;;;;;5.71;60.61;102638.13;5057618;28;50674;-77
2021/11/23 07:35:11;;;;;;;;;16.00;13.50;;;;;5.76;60.43;102644.56;5060961;28;46364;-77
2021/11/23 07:37:40;;;;;;;;;19.00;16.25;;;;;5.78;60.27;102647.25;5060743;28;46739;-76
2021/11/23 07:40:07;;;;;;;;;17.50;13.75;;;;;5.81;60.24;102654.44;5056369;28;45539;-77
2021/11/23 07:42:32;;;;;;;;;17.00;13.25;;;;;5.78;60.57;102661.28;5056922;28;45276;-77
2021/11/23 07:44:57;;;;;;;;;19.25;13.00;;;;;5.81;60.30;102662.28;5058209;28;45587;-77
2021/11/23 07:47:24;;;;;;;;;14.00;12.75;;;;;5.83;60.25;102668.50;5059521;28;68069;-77
2021/11/23 07:49:49;;;;;;;;;19.25;16.50;;;;;5.83;60.01;102669.41;5056279;28;45462;-76
2021/11/23 07:52:16;;;;;;;;;15.00;12.00;;;;;5.86;59.83;102668.69;5056045;28;45686;-77
2021/11/23 07:54:41;;;;;;;;;12.00;11.75;;;;;5.87;60.06;102673.13;5054986;28;45526;-77
2021/11/23 07:57:07;;;;;;;;;18.50;12.75;;;;;5.89;59.90;102666.25;5056416;28;46976;-77
2021/11/23 07:59:32;;;;;;;;;16.25;15.75;;;;;5.93;59.96;102670.91;5058493;28;45531;-78
2021/11/23 08:01:58;;;;;;;;;11.50;10.25;;;;;5.95;59.72;102677.13;5059021;28;58238;-77
2021/11/23 08:04:23;;;;;;;;;19.00;12.00;;;;;5.97;59.83;102675.53;5057732;28;49648;-77
2021/11/23 08:06:48;;;;;;;;;11.50;10.75;;;;;5.99;59.52;102682.66;5058979;28;64894;-77
2021/11/23 08:09:14;;;;;;;;;21.00;11.25;;;;;5.98;59.53;102675.59;5057177;28;45619;-77
2021/11/23 08:11:39;;;;;;;;;11.50;9.75;;;;;6.04;59.64;102685.56;5055944;28;53749;-78
2021/11/23 08:14:05;;;;;;;;;14.50;10.25;;;;;6.07;59.26;102683.09;5057475;28;45401;-77
2021/11/23 08:16:30;;;;;;;;;11.50;10.00;;;;;6.10;59.24;102687.63;5040661;28;67102;-76
2021/11/23 08:18:55;;;;;;;;;15.50;11.75;;;;;6.13;58.61;102690.44;5027595;28;45464;-77
2021/11/23 08:21:21;;;;;;;;;12.00;10.50;;;;;6.14;59.07;102687.91;5029213;28;55914;-77
2021/11/23 08:23:46;;;;;;;;;16.50;10.00;;;;;6.16;58.96;102694.13;5030945;28;45596;-77
2021/11/23 08:26:12;;;;;;;;;13.00;10.25;;;;;6.15;58.57;102684.47;5028660;28;47372;-77
2021/11/23 08:28:38;;;;;;;;;9.50;9.00;;;;;6.22;58.93;102693.59;5026127;28;45547;-77
2021/11/23 08:31:03;;;;;;;;;12.75;10.00;;;;;6.25;58.94;102694.69;5025385;28;45306;-78
2021/11/23 08:33:29;;;;;;;;;10.00;10.00;;;;;6.28;58.71;102694.88;5028355;28;45378;-78
2021/11/23 08:35:54;;;;;;;;;9.00;8.75;;;;;6.32;58.67;102690.69;5026778;28;65414;-77
2021/11/23 08:38:20;;;;;;;;;9.00;8.75;;;;;6.33;58.84;102675.84;5028152;28;48520;-77
2021/11/23 08:40:45;;;;;;;;;15.25;10.00;;;;;6.39;58.50;102686.69;5031653;28;45695;-77
2021/11/23 08:43:10;;;;;;;;;15.00;9.00;;;;;6.42;58.37;102682.53;5024181;28;45576;-77
2021/11/23 08:45:36;;;;;;;;;12.75;9.25;;;;;6.42;58.61;102679.91;5032720;28;47341;-77
2021/11/23 08:48:02;;;;;;;;;13.00;11.00;;;;;6.44;57.62;102683.50;5022755;28;45525;-78
2021/11/23 08:50:27;;;;;;;;;17.50;11.00;;;;;6.51;57.53;102688.31;5034490;28;45457;-79
2021/11/23 08:52:53;;;;;;;;;9.75;8.75;;;;;6.56;57.63;102693.84;5033488;28;53475;-79
2021/11/23 08:55:18;;;;;;;;;10.25;9.00;;;;;6.55;57.81;102673.63;5009641;28;47058;-78
2021/11/23 08:57:43;;;;;;;;;9.00;8.75;;;;;6.62;56.70;102691.56;5034592;28;64271;-77
2021/11/23 09:02:36;;;;;;;;;10.50;9.00;;;;;6.67;57.53;102683.94;5024136;28;45640;-78
2021/11/23 09:05:01;;;;;;;;;10.50;6.00;;;;;6.73;57.11;102682.56;5024603;28;46502;-78
2021/11/23 09:07:27;;;;;;;;;5.25;5.00;;;;;6.76;56.79;102684.44;5026853;28;45593;-78
2021/11/23 09:09:53;;;;;;;;;15.50;6.25;;;;;6.80;56.62;102673.28;5030730;28;51261;-78
2021/11/23 09:12:18;;;;;;;;;8.75;5.25;;;;;6.86;56.90;102683.22;5025721;28;45405;-77
2021/11/23 09:14:44;;;;;;;;;10.00;8.50;;;;;6.88;56.90;102677.28;5027410;28;46613;-77
2021/11/23 09:17:09;;;;;;;;;7.00;7.00;;;;;6.91;56.77;102680.03;5049305;28;45554;-76
2021/11/23 09:19:35;;;;;;;;;9.50;5.50;;;;;6.95;56.64;102681.13;5055472;28;45584;-77
2021/11/23 09:22:01;;;;;;;;;6.00;6.00;;;;;6.98;56.54;102687.47;5059161;28;45381;-77
2021/11/23 09:24:26;;;;;;;;;10.00;5.00;;;;;6.97;56.40;102679.47;5056165;28;47425;-77
2021/11/23 09:26:52;;;;;;;;;9.25;6.00;;;;;7.06;56.78;102690.50;5055630;28;57104;-77
2021/11/23 09:29:20;;;;;;;;;9.75;6.00;;;;;7.10;55.96;102689.84;5056565;28;45474;-78
2021/11/23 09:31:46;;;;;;;;;6.75;5.00;;;;;7.12;56.10;102684.69;5056514;28;45556;-77
2021/11/23 09:34:12;;;;;;;;;9.50;6.00;;;;;7.14;56.44;102688.28;5056467;28;46690;-78
2021/11/23 09:36:38;;;;;;;;;5.00;5.00;;;;;7.22;55.96;102694.88;5055685;28;45464;-77
2021/11/23 09:39:04;;;;;;;;;6.00;4.50;;;;;7.27;55.97;102704.81;5056480;28;47364;-78
2021/11/23 09:41:31;;;;;;;;;7.75;6.00;;;;;7.30;55.72;102701.47;5056615;28;45312;-78
2021/11/23 09:43:56;;;;;;;;;6.25;5.75;;;;;7.35;55.67;102707.88;5054643;28;46353;-78
2021/11/23 09:46:24;;;;;;;;;5.75;3.00;;;;;7.39;55.61;102701.03;5055058;28;62341;-78
2021/11/23 09:48:50;;;;;;;;;6.25;4.50;;;;;7.42;55.48;102702.13;5056502;28;45537;-78
2021/11/23 09:51:23;;;;;;;;;2.00;2.00;;;;;7.43;54.97;102703.91;5055238;28;45587;-78
2021/11/23 09:53:49;;;;;;;;;7.00;2.75;;;;;7.49;55.07;102700.72;5053527;28;47706;-77
2021/11/23 09:56:15;;;;;;;;;4.50;2.00;;;;;7.52;54.59;102698.25;5057492;28;45417;-78
2021/11/23 09:58:40;;;;;;;;;5.25;3.00;;;;;7.54;54.91;102692.25;5055366;28;58311;-78
2021/11/23 10:01:09;;;;;;;;;2.00;2.00;;;;;7.58;54.71;102694.22;5054437;28;45488;-77
2021/11/23 10:03:34;;;;;;;;;3.50;3.00;;;;;7.58;54.24;102680.19;5054843;28;46588;-78
2021/11/23 10:06:20;;;;;;;;;3.00;3.00;;;;;7.66;53.56;102702.50;5038353;28;46551;-78
2021/11/23 10:08:47;;;;;;;;;5.00;2.75;;;;;7.64;52.84;102682.22;5053252;28;45290;-79
2021/11/23 10:11:22;;;;;;;;;4.50;2.25;;;;;7.73;53.75;102686.25;5057740;28;45488;-77
2021/11/23 10:13:49;;;;;;;;;3.00;2.00;;;;;7.77;53.86;102692.53;5054910;28;45684;-77
2021/11/23 10:16:15;;;;;;;;;3.50;2.00;;;;;7.81;53.84;102684.91;5057508;28;45516;-77
2021/11/23 10:18:41;;;;;;;;;6.00;2.00;;;;;7.85;53.78;102691.22;5053344;28;45405;-77
2021/11/23 10:21:07;;;;;;;;;1.50;1.50;;;;;7.83;53.15;102666.59;5055422;28;45480;-77
2021/11/23 10:23:36;;;;;;;;;1.00;1.00;;;;;7.87;53.49;102672.06;5055894;28;47733;-77
2021/11/23 10:26:14;;;;;;;;;2.00;1.00;;;;;7.91;53.93;102673.13;5055693;28;45374;-77
2021/11/23 10:28:53;;;;;;;;;5.00;1.00;;;;;7.97;53.74;102672.53;5055336;28;45183;-77
2021/11/23 10:31:19;;;;;;;;;2.33;1.00;;;;;8.03;53.47;102670.22;5054283;28;45403;-78
2021/11/23 10:33:44;;;;;;;;;4.33;1.00;;;;;8.08;52.33;102674.00;5057765;28;46326;-78
2021/11/23 10:36:13;;;;;;;;;1.00;1.00;;;;;8.12;52.93;102683.84;5056022;28;45420;-77
2021/11/23 10:38:38;;;;;;;;;1.00;0.67;;;;;8.16;52.59;102682.28;5056941;28;45446;-76
2021/11/23 10:41:09;;;;;;;;;1.25;1.25;;;;;8.16;52.64;102663.88;5055710;28;45508;-77
2021/11/23 10:43:37;;;;;;;;;3.00;3.00;;;;;8.18;52.67;102668.38;5052328;28;47244;-77
2021/11/23 10:46:02;;;;;;;;;1.75;1.75;;;;;8.26;52.80;102660.88;5051954;28;45800;-76
2021/11/23 10:48:28;;;;;;;;;3.67;2.00;;;;;8.30;53.14;102661.06;5054271;28;45551;-77
2021/11/23 10:50:57;;;;;;;;;5.00;2.00;;;;;8.36;52.00;102663.13;5036614;28;47168;-77
2021/11/23 10:53:23;;;;;;;;;2.33;2.33;;;;;8.40;52.30;102655.47;5054212;28;46535;-77
2021/11/23 10:55:49;;;;;;;;;3.67;2.67;;;;;8.44;51.90;102655.63;5060337;28;53514;-77
2021/11/23 10:58:15;;;;;;;;;5.00;1.00;;;;;8.49;52.24;102659.41;5056193;28;45574;-76
2021/11/23 11:00:43;;;;;;;;;2.00;2.00;;;;;8.53;51.11;102657.00;5027542;28;45564;-77
2021/11/23 11:03:10;;;;;;;;;3.00;2.00;;;;;8.56;51.23;102637.78;5055739;28;46785;-77
2021/11/23 11:06:07;;;;;;;;;4.33;1.00;;;;;8.60;51.71;102635.38;5056561;28;45391;-77
2021/11/23 11:08:41;;;;;;;;;1.67;1.67;;;;;8.63;51.13;102625.00;5024229;28;45666;-78
2021/11/23 11:11:07;;;;;;;;;2.00;2.00;;;;;8.67;50.72;102633.94;5040765;28;45646;-77
2021/11/23 11:13:33;;;;;;;;;1.67;1.00;;;;;8.65;51.15;102620.72;5056189;28;46883;-77
2021/11/23 11:15:58;;;;;;;;;0.67;0.67;;;;;8.74;51.44;102625.53;5020986;28;45524;-77
2021/11/23 11:18:39;;;;;;;;;3.67;1.00;;;;;8.78;51.32;102630.06;5041704;28;45427;-77
2021/11/23 11:21:10;;;;;;;;;2.00;1.00;;;;;8.82;51.50;102632.03;5054402;28;47201;-76
2021/11/23 11:23:42;;;;;;;;;2.00;1.00;;;;;8.86;49.86;102625.19;5056199;28;62535;-77
2021/11/23 11:26:25;;;;;;;;;1.00;1.00;;;;;8.89;50.76;102628.88;5034169;28;45517;-77
2021/11/23 11:28:58;;;;;;;;;2.33;0.67;;;;;8.92;50.93;102614.94;5049262;28;45358;-77
2021/11/23 11:31:43;;;;;;;;;1.00;1.00;;;;;8.95;51.35;102612.44;5025744;28;45681;-77